createdAt,value
2022-12-09T00:00:30.547Z,77.28
2022-12-09T00:02:57.162Z,77.26
2022-12-09T00:05:24.151Z,76.98
2022-12-09T00:07:50.785Z,76.96
2022-12-09T00:10:20.338Z,76.90
2022-12-09T00:12:46.846Z,77.16
2022-12-09T00:15:13.543Z,77.26
2022-12-09T00:17:40.056Z,77.32
2022-12-09T00:20:07.520Z,77.32
2022-12-09T00:22:34.349Z,77.23
2022-12-09T00:25:00.895Z,77.20
2022-12-09T00:27:27.427Z,77.25
2022-12-09T00:29:54.024Z,77.23
2022-12-09T00:32:20.982Z,77.39
2022-12-09T00:34:48.558Z,77.24
2022-12-09T00:37:15.097Z,77.29
2022-12-09T00:39:41.720Z,77.09
2022-12-09T00:42:08.309Z,77.54
2022-12-09T00:44:34.819Z,77.38
2022-12-09T00:47:01.567Z,77.36
2022-12-09T00:49:28.418Z,77.39
2022-12-09T00:51:55.121Z,77.56
2022-12-09T00:54:22.105Z,77.65
2022-12-09T00:56:48.724Z,77.31
2022-12-09T00:59:15.322Z,77.36
2022-12-09T01:01:42.068Z,77.40
2022-12-09T01:04:09.001Z,77.38
2022-12-09T01:06:35.802Z,77.46
2022-12-09T01:09:03.490Z,77.20
2022-12-09T01:11:30.734Z,77.01
2022-12-09T01:14:01.483Z,77.55
2022-12-09T01:16:29.890Z,77.31
2022-12-09T01:18:59.645Z,77.88
2022-12-09T01:21:26.848Z,77.93
2022-12-09T01:23:53.617Z,77.91
2022-12-09T01:26:22.038Z,77.59
2022-12-09T01:28:53.443Z,77.61
2022-12-09T01:31:22.258Z,77.50
2022-12-09T01:33:49.271Z,77.74
2022-12-09T01:36:19.899Z,77.49
2022-12-09T01:38:47.226Z,77.54
2022-12-09T01:41:14.437Z,77.60
2022-12-09T01:43:41.424Z,77.78
2022-12-09T01:46:08.627Z,78.20
2022-12-09T01:48:37.096Z,77.99
2022-12-09T01:51:05.335Z,78.50
2022-12-09T01:53:36.025Z,77.91
2022-12-09T01:56:03.901Z,77.77
2022-12-09T01:58:30.983Z,77.85
2022-12-09T02:00:57.477Z,77.73
2022-12-09T02:03:24.177Z,77.58
2022-12-09T02:05:51.214Z,78.17
2022-12-09T02:08:19.439Z,77.75
2022-12-09T02:10:50.919Z,77.70
2022-12-09T02:13:23.738Z,78.19
2022-12-09T02:15:59.641Z,77.44
2022-12-09T02:18:30.357Z,77.38
2022-12-09T02:20:58.753Z,77.81
2022-12-09T02:23:25.262Z,77.83
2022-12-09T02:25:56.672Z,77.56
2022-12-09T02:28:42.143Z,77.18
2022-12-09T02:31:24.705Z,77.25
2022-12-09T02:34:07.473Z,76.60
2022-12-09T02:36:35.740Z,76.77
2022-12-09T02:39:02.630Z,77.11
2022-12-09T02:41:29.973Z,76.44
2022-12-09T02:44:17.433Z,76.59
2022-12-09T02:46:45.295Z,76.91
2022-12-09T02:49:12.972Z,76.61
2022-12-09T02:51:42.576Z,76.73
2022-12-09T02:54:13.125Z,77.12
2022-12-09T02:56:41.200Z,77.32
2022-12-09T02:59:07.777Z,77.36
2022-12-09T03:01:46.581Z,77.25
2022-12-09T03:04:20.507Z,77.46
2022-12-09T03:06:48.377Z,77.53
2022-12-09T03:09:17.019Z,77.47
2022-12-09T03:11:43.831Z,77.54
2022-12-09T03:14:17.671Z,77.65
2022-12-09T03:16:44.945Z,78.05
2022-12-09T03:19:17.087Z,77.84
2022-12-09T03:21:45.440Z,77.68
2022-12-09T03:24:12.720Z,77.94
2022-12-09T03:26:39.573Z,77.62
2022-12-09T03:29:07.510Z,77.45
2022-12-09T03:31:34.368Z,78.16
2022-12-09T03:34:01.484Z,77.66
2022-12-09T03:36:29.362Z,77.44
2022-12-09T03:38:56.226Z,77.49
2022-12-09T03:41:24.250Z,77.50
2022-12-09T03:43:53.107Z,77.74
2022-12-09T03:46:20.634Z,78.05
2022-12-09T03:48:47.796Z,78.05
2022-12-09T03:51:15.921Z,78.20
2022-12-09T03:54:02.141Z,78.01
2022-12-09T03:56:29.381Z,78.25
2022-12-09T03:58:56.768Z,78.14
2022-12-09T04:01:23.647Z,78.53
2022-12-09T04:03:51.107Z,78.39
2022-12-09T04:06:18.382Z,78.45
2022-12-09T04:08:44.998Z,78.27
2022-12-09T04:11:11.910Z,78.67
2022-12-09T04:13:38.913Z,78.64
2022-12-09T04:16:05.568Z,78.51
2022-12-09T04:18:32.225Z,78.86
2022-12-09T04:20:58.959Z,78.03
2022-12-09T04:23:25.467Z,77.95
2022-12-09T04:25:52.367Z,77.58
2022-12-09T04:28:18.945Z,77.92
2022-12-09T04:30:46.395Z,77.63
2022-12-09T04:33:13.341Z,78.19
2022-12-09T04:35:40.235Z,78.35
2022-12-09T04:38:06.994Z,78.05
2022-12-09T04:40:34.195Z,77.85
2022-12-09T04:43:00.779Z,77.74
2022-12-09T04:45:27.367Z,77.81
2022-12-09T04:47:54.163Z,78.06
2022-12-09T04:50:21.067Z,77.90
2022-12-09T04:52:47.667Z,77.68
2022-12-09T04:55:15.154Z,78.19
2022-12-09T04:57:41.861Z,78.37
2022-12-09T05:00:08.966Z,78.22
2022-12-09T05:02:35.842Z,78.16
2022-12-09T05:05:03.258Z,77.99
2022-12-09T05:07:31.540Z,78.01
2022-12-09T05:09:58.855Z,77.80
2022-12-09T05:12:25.853Z,77.99
2022-12-09T05:14:52.444Z,78.08
2022-12-09T05:17:19.077Z,78.22
2022-12-09T05:19:45.834Z,78.11
2022-12-09T05:22:12.400Z,78.24
2022-12-09T05:24:41.127Z,78.22
2022-12-09T05:27:08.133Z,78.13
2022-12-09T05:29:34.689Z,78.49
2022-12-09T05:32:01.514Z,78.37
2022-12-09T05:34:28.446Z,78.30
2022-12-09T05:36:55.484Z,78.56
2022-12-09T05:39:22.193Z,78.31
2022-12-09T05:41:49.586Z,77.89
2022-12-09T05:44:16.458Z,77.71
2022-12-09T05:46:43.411Z,77.84
2022-12-09T05:49:10.330Z,77.62
2022-12-09T05:51:37.301Z,77.78
2022-12-09T05:54:05.432Z,77.89
2022-12-09T05:56:32.533Z,77.73
2022-12-09T06:01:26.526Z,77.48
2022-12-09T06:03:54.197Z,77.72
2022-12-09T06:06:23.025Z,77.72
2022-12-09T06:08:50.136Z,78.09
2022-12-09T06:11:19.738Z,78.17
2022-12-09T06:13:47.168Z,78.43
2022-12-09T06:16:14.738Z,78.13
2022-12-09T06:18:41.783Z,78.25
2022-12-09T06:21:09.353Z,77.98
2022-12-09T06:23:37.269Z,78.12
2022-12-09T06:26:04.320Z,77.85
2022-12-09T06:28:31.470Z,77.50
2022-12-09T06:30:58.513Z,77.58
2022-12-09T06:33:53.165Z,77.55
2022-12-09T06:36:12.037Z,77.63
2022-12-09T06:38:38.870Z,77.71
2022-12-09T06:41:09.289Z,77.72
2022-12-09T06:43:36.332Z,77.78
2022-12-09T06:46:03.186Z,78.29
2022-12-09T06:48:30.189Z,77.94
2022-12-09T06:50:56.809Z,78.08
2022-12-09T06:53:23.509Z,78.23
2022-12-09T06:55:50.253Z,78.01
2022-12-09T06:58:16.901Z,77.53
2022-12-09T07:00:44.002Z,77.82
2022-12-09T07:03:11.932Z,77.71
2022-12-09T07:05:39.203Z,77.90
2022-12-09T07:08:06.154Z,77.60
2022-12-09T07:10:33.013Z,77.61
2022-12-09T07:13:00.055Z,77.70
2022-12-09T07:17:54.132Z,77.88
2022-12-09T07:20:20.851Z,77.47
2022-12-09T07:22:47.807Z,76.87
2022-12-09T07:25:15.123Z,76.01
2022-12-09T07:27:42.340Z,76.25
2022-12-09T07:30:09.495Z,75.43
2022-12-09T07:32:36.422Z,75.00
2022-12-09T07:35:03.283Z,74.63
2022-12-09T07:37:29.871Z,74.67
2022-12-09T07:39:57.171Z,74.76
2022-12-09T07:42:24.010Z,75.30
2022-12-09T07:44:54.616Z,75.86
2022-12-09T07:47:21.378Z,75.95
2022-12-09T07:49:48.446Z,75.83
2022-12-09T07:52:15.204Z,76.51
2022-12-09T07:54:41.985Z,76.42
2022-12-09T07:57:08.797Z,77.02
2022-12-09T07:59:35.475Z,76.59
2022-12-09T08:02:06.603Z,76.74
2022-12-09T08:04:35.334Z,76.36
2022-12-09T08:07:02.564Z,75.90
2022-12-09T08:09:29.408Z,75.52
2022-12-09T08:11:56.603Z,75.13
2022-12-09T08:14:23.426Z,74.75
2022-12-09T08:16:50.180Z,73.55
2022-12-09T08:19:17.400Z,73.46
2022-12-09T08:21:45.556Z,72.95
2022-12-09T08:24:15.249Z,73.06
2022-12-09T08:26:42.212Z,73.98
2022-12-09T08:29:10.082Z,74.17
2022-12-09T08:31:40.930Z,74.18
2022-12-09T08:34:09.003Z,73.27
2022-12-09T08:36:37.011Z,72.73
2022-12-09T08:39:04.184Z,72.93
2022-12-09T08:41:39.133Z,71.92
2022-12-09T08:44:08.033Z,72.36
2022-12-09T08:46:34.955Z,71.54
2022-12-09T08:49:02.640Z,72.77
2022-12-09T08:51:29.774Z,73.58
2022-12-09T08:53:59.570Z,72.65
2022-12-09T08:56:27.006Z,72.44
2022-12-09T08:58:54.080Z,71.47
2022-12-09T09:01:22.546Z,72.30
2022-12-09T09:03:49.921Z,71.89
2022-12-09T09:06:17.269Z,71.86
2022-12-09T09:08:44.351Z,72.60
2022-12-09T09:11:12.416Z,72.19
2022-12-09T09:13:40.001Z,72.30
2022-12-09T09:16:11.425Z,72.23
2022-12-09T09:18:38.541Z,72.62
2022-12-09T09:21:06.270Z,73.06
2022-12-09T09:23:33.293Z,73.80
2022-12-09T09:25:59.930Z,73.22
2022-12-09T09:28:30.958Z,73.22
2022-12-09T09:30:58.973Z,72.64
2022-12-09T09:33:25.746Z,73.08
2022-12-09T09:35:56.531Z,71.98
2022-12-09T09:38:23.172Z,72.22
2022-12-09T09:40:50.032Z,72.37
2022-12-09T09:43:17.483Z,72.38
2022-12-09T09:45:44.461Z,72.46
2022-12-09T09:48:13.381Z,71.78
2022-12-09T09:50:49.665Z,71.76
2022-12-09T09:53:22.145Z,72.32
2022-12-09T09:55:50.448Z,71.63
2022-12-09T09:58:18.818Z,70.69
2022-12-09T10:00:58.382Z,70.74
2022-12-09T10:03:32.574Z,71.47
2022-12-09T10:06:01.666Z,71.05
2022-12-09T10:08:28.979Z,71.11
2022-12-09T10:10:55.882Z,70.67
2022-12-09T10:13:41.959Z,70.92
2022-12-09T10:16:17.037Z,70.73
2022-12-09T10:18:56.315Z,70.77
2022-12-09T10:21:24.579Z,71.39
2022-12-09T10:23:51.876Z,70.10
2022-12-09T10:26:28.216Z,70.21
2022-12-09T10:28:57.989Z,69.84
2022-12-09T10:31:25.099Z,70.52
2022-12-09T10:33:52.277Z,70.43
2022-12-09T10:36:33.997Z,69.43
2022-12-09T10:39:02.377Z,69.82
2022-12-09T10:41:54.079Z,69.97
2022-12-09T10:44:21.807Z,70.13
2022-12-09T10:46:48.764Z,69.98
2022-12-09T10:49:19.384Z,70.66
2022-12-09T10:51:50.388Z,71.32
2022-12-09T10:54:24.351Z,70.06
2022-12-09T10:57:09.832Z,69.72
2022-12-09T10:59:36.788Z,71.05
2022-12-09T11:02:16.731Z,69.91
2022-12-09T11:04:44.174Z,69.75
2022-12-09T11:07:17.384Z,70.09
2022-12-09T11:09:48.242Z,70.27
2022-12-09T11:12:30.007Z,71.12
2022-12-09T11:14:59.115Z,71.81
2022-12-09T11:17:30.975Z,71.66
2022-12-09T11:20:07.583Z,71.40
2022-12-09T11:22:41.892Z,71.15
2022-12-09T11:25:12.124Z,71.83
2022-12-09T11:27:40.679Z,71.31
2022-12-09T11:30:12.692Z,71.18
2022-12-09T11:32:54.536Z,70.69
2022-12-09T11:35:24.091Z,70.48
2022-12-09T11:37:50.751Z,70.24
2022-12-09T11:40:17.376Z,69.84
2022-12-09T11:42:43.898Z,70.38
2022-12-09T11:45:18.180Z,70.31
2022-12-09T11:50:34.718Z,71.29
2022-12-09T11:53:27.889Z,71.83
2022-12-09T11:55:57.441Z,70.32
2022-12-09T11:58:29.912Z,69.90
2022-12-09T12:01:16.168Z,70.57
2022-12-09T12:03:45.288Z,70.07
2022-12-09T12:06:14.511Z,70.18
2022-12-09T12:08:46.634Z,69.51
2022-12-09T12:11:15.866Z,68.96
2022-12-09T12:13:42.404Z,69.27
2022-12-09T12:16:11.043Z,69.59
2022-12-09T12:18:54.025Z,69.63
2022-12-09T12:21:22.276Z,69.63
2022-12-09T12:24:07.575Z,70.34
2022-12-09T12:26:41.195Z,70.43
2022-12-09T12:29:08.230Z,71.19
2022-12-09T12:32:04.042Z,71.47
2022-12-09T12:34:45.956Z,70.88
2022-12-09T12:37:12.412Z,71.48
2022-12-09T12:39:42.673Z,71.81
2022-12-09T12:42:28.244Z,71.41
2022-12-09T12:45:22.786Z,71.24
2022-12-09T12:47:57.718Z,72.04
2022-12-09T12:50:24.362Z,72.85
2022-12-09T12:53:09.307Z,72.28
2022-12-09T12:55:41.569Z,72.06
2022-12-09T12:58:31.271Z,72.18
2022-12-09T13:01:07.711Z,72.10
2022-12-09T13:03:34.499Z,71.76
2022-12-09T13:06:01.081Z,71.60
2022-12-09T13:08:33.859Z,71.71
2022-12-09T13:11:01.054Z,71.69
2022-12-09T13:13:38.372Z,71.77
2022-12-09T13:16:14.355Z,71.31
2022-12-09T13:18:40.974Z,71.72
2022-12-09T13:21:07.716Z,71.30
2022-12-09T13:23:49.248Z,71.14
2022-12-09T13:26:24.663Z,71.06
2022-12-09T13:29:10.111Z,70.76
2022-12-09T13:31:37.304Z,71.09
2022-12-09T13:34:07.321Z,71.27
2022-12-09T13:36:36.434Z,72.49
2022-12-09T13:39:03.669Z,72.17
2022-12-09T13:41:30.166Z,72.24
2022-12-09T13:43:56.598Z,72.63
2022-12-09T13:46:23.714Z,72.55
2022-12-09T13:48:50.763Z,72.64
2022-12-09T13:51:17.683Z,72.82
2022-12-09T13:53:46.703Z,72.95
2022-12-09T13:56:16.804Z,73.67
2022-12-09T13:59:01.497Z,73.82
2022-12-09T14:01:46.756Z,74.22
2022-12-09T14:04:39.661Z,74.98
2022-12-09T14:07:10.017Z,75.29
2022-12-09T14:09:47.134Z,75.75
2022-12-09T14:12:25.623Z,76.17
2022-12-09T14:15:01.752Z,76.08
2022-12-09T14:17:31.173Z,76.02
2022-12-09T14:20:16.379Z,76.58
2022-12-09T14:22:42.874Z,76.83
2022-12-09T14:25:28.418Z,76.95
2022-12-09T14:28:10.386Z,77.25
2022-12-09T14:30:50.701Z,77.09
2022-12-09T14:33:21.244Z,77.60
2022-12-09T14:35:51.552Z,77.39
2022-12-09T14:38:18.021Z,77.75
2022-12-09T14:40:50.674Z,77.87
2022-12-09T14:43:26.315Z,77.74
2022-12-09T14:46:02.797Z,78.40
2022-12-09T14:48:30.993Z,78.18
2022-12-09T14:51:06.681Z,78.48
2022-12-09T14:53:33.990Z,78.56
2022-12-09T14:56:00.536Z,78.99
2022-12-09T14:58:27.052Z,78.50
2022-12-09T15:01:08.102Z,78.32
2022-12-09T15:03:42.979Z,78.84
2022-12-09T15:06:13.064Z,78.59
2022-12-09T15:08:40.734Z,78.42
2022-12-09T15:11:12.485Z,78.18
2022-12-09T15:13:40.774Z,78.37
2022-12-09T15:16:10.920Z,78.52
2022-12-09T15:18:37.847Z,78.42
2022-12-09T15:21:04.399Z,78.33
2022-12-09T15:23:30.897Z,77.84
2022-12-09T15:26:01.374Z,77.48
2022-12-09T15:28:29.014Z,77.95
2022-12-09T15:30:58.328Z,77.52
2022-12-09T15:33:25.034Z,77.69
2022-12-09T15:35:57.517Z,77.87
2022-12-09T15:38:24.950Z,77.87
2022-12-09T15:41:10.212Z,78.11
2022-12-09T15:43:36.793Z,77.91
2022-12-09T15:46:03.567Z,78.04
2022-12-09T15:48:32.497Z,78.10
2022-12-09T15:50:59.855Z,78.23
2022-12-09T15:53:29.358Z,78.16
2022-12-09T15:55:58.018Z,78.20
2022-12-09T15:58:35.918Z,78.70
2022-12-09T16:01:02.427Z,78.81
2022-12-09T16:03:29.454Z,78.53
2022-12-09T16:06:00.300Z,78.84
2022-12-09T16:08:34.488Z,79.20
2022-12-09T16:11:01.083Z,79.17
2022-12-09T16:13:27.676Z,79.42
2022-12-09T16:15:55.879Z,79.58
2022-12-09T16:18:24.032Z,79.21
2022-12-09T16:21:17.014Z,78.91
2022-12-09T16:23:43.949Z,78.56
2022-12-09T16:26:29.782Z,78.42
2022-12-09T16:29:00.452Z,78.57
2022-12-09T16:31:27.006Z,78.80
2022-12-09T16:33:53.957Z,79.02
2022-12-09T16:36:21.737Z,78.96
2022-12-09T16:39:07.049Z,79.34
2022-12-09T16:41:51.938Z,79.63
2022-12-09T16:44:28.148Z,79.70
2022-12-09T16:47:03.162Z,79.51
2022-12-09T16:49:29.658Z,79.95
2022-12-09T16:51:56.171Z,80.15
2022-12-09T16:54:22.999Z,80.00
2022-12-09T16:56:49.952Z,80.04
2022-12-09T16:59:16.458Z,80.08
2022-12-09T17:01:43.032Z,79.87
2022-12-09T17:04:13.902Z,79.71
2022-12-09T17:06:40.476Z,79.23
2022-12-09T17:09:07.040Z,79.24
2022-12-09T17:11:35.133Z,78.93
2022-12-09T17:14:01.723Z,79.04
2022-12-09T17:16:28.392Z,78.69
2022-12-09T17:18:54.983Z,78.58
2022-12-09T17:21:21.488Z,78.73
2022-12-09T17:23:48.064Z,79.29
2022-12-09T17:26:15.402Z,79.23
2022-12-09T17:28:42.118Z,79.32
2022-12-09T17:31:09.673Z,79.29
2022-12-09T17:33:36.254Z,79.29
2022-12-09T17:36:02.756Z,79.16
2022-12-09T17:38:32.292Z,78.90
2022-12-09T17:41:02.821Z,78.73
2022-12-09T17:43:29.319Z,79.19
2022-12-09T17:45:58.266Z,78.85
2022-12-09T17:48:24.765Z,78.92
2022-12-09T17:50:51.260Z,79.40
2022-12-09T17:53:17.847Z,79.33
2022-12-09T17:55:44.344Z,79.44
2022-12-09T17:58:10.833Z,79.41
2022-12-09T18:00:38.735Z,79.62
2022-12-09T18:03:05.223Z,79.48
2022-12-09T18:05:31.757Z,79.64
2022-12-09T18:07:58.317Z,79.42
2022-12-09T18:10:24.883Z,79.17
2022-12-09T18:12:51.370Z,79.40
2022-12-09T18:15:18.900Z,79.38
2022-12-09T18:17:45.397Z,79.38
2022-12-09T18:20:13.020Z,79.53
2022-12-09T18:22:39.820Z,79.62
2022-12-09T18:25:06.857Z,79.79
2022-12-09T18:27:33.364Z,79.83
2022-12-09T18:29:59.872Z,79.63
2022-12-09T18:32:29.125Z,79.69
2022-12-09T18:34:59.294Z,79.71
2022-12-09T18:37:26.688Z,79.21
2022-12-09T18:39:53.232Z,79.07
2022-12-09T18:42:19.763Z,79.22
2022-12-09T18:44:46.369Z,79.11
2022-12-09T18:47:13.041Z,78.88
2022-12-09T18:49:39.534Z,78.65
2022-12-09T18:52:06.047Z,78.17
2022-12-09T18:54:32.714Z,77.99
2022-12-09T18:57:01.742Z,77.81
2022-12-09T18:59:28.291Z,78.63
2022-12-09T19:01:54.909Z,79.05
2022-12-09T19:04:22.769Z,79.10
2022-12-09T19:06:50.094Z,79.27
2022-12-09T19:09:18.265Z,79.39
2022-12-09T19:11:46.129Z,79.43
2022-12-09T19:14:13.995Z,79.15
2022-12-09T19:16:40.783Z,78.99
2022-12-09T19:19:10.250Z,79.26
2022-12-09T19:21:37.499Z,78.72
2022-12-09T19:24:04.040Z,78.82
2022-12-09T19:26:31.767Z,79.17
2022-12-09T19:28:59.097Z,78.71
2022-12-09T19:31:29.679Z,78.52
2022-12-09T19:33:56.540Z,78.63
2022-12-09T19:36:23.849Z,79.22
2022-12-09T19:38:51.054Z,79.41
2022-12-09T19:41:17.983Z,79.35
2022-12-09T19:43:44.710Z,79.56
2022-12-09T19:46:11.820Z,79.50
2022-12-09T19:48:39.172Z,79.47
2022-12-09T19:51:06.562Z,79.92
2022-12-09T19:53:33.618Z,79.59
2022-12-09T19:56:01.801Z,79.89
2022-12-09T19:58:28.986Z,79.69
2022-12-09T20:00:55.746Z,79.71
2022-12-09T20:03:22.614Z,79.37
2022-12-09T20:05:52.080Z,79.02
2022-12-09T20:08:18.683Z,78.70
2022-12-09T20:10:45.478Z,79.13
2022-12-09T20:13:12.658Z,79.41
2022-12-09T20:15:39.208Z,79.24
2022-12-09T20:18:05.813Z,79.06
2022-12-09T20:20:37.984Z,79.18
2022-12-09T20:23:04.549Z,79.09
2022-12-09T20:25:32.522Z,79.39
2022-12-09T20:27:59.045Z,79.20
2022-12-09T20:30:25.555Z,79.19
2022-12-09T20:32:52.076Z,79.13
2022-12-09T20:35:18.656Z,79.21
2022-12-09T20:37:45.203Z,78.87
2022-12-09T20:40:11.942Z,78.97
2022-12-09T20:42:38.459Z,79.13
2022-12-09T20:45:05.666Z,78.85
2022-12-09T20:47:32.748Z,79.21
2022-12-09T20:49:59.285Z,79.29
2022-12-09T20:52:25.895Z,79.26
2022-12-09T20:54:52.927Z,79.48
2022-12-09T20:57:19.561Z,78.94
2022-12-09T20:59:46.039Z,78.88
2022-12-09T21:02:15.527Z,79.19
2022-12-09T21:04:42.103Z,79.22
2022-12-09T21:07:08.623Z,78.95
2022-12-09T21:09:35.102Z,79.05
2022-12-09T21:12:01.625Z,79.02
2022-12-09T21:14:33.175Z,79.11
2022-12-09T21:16:59.863Z,79.07
2022-12-09T21:19:30.060Z,79.01
2022-12-09T21:21:56.625Z,78.98
2022-12-09T21:24:24.305Z,79.08
2022-12-09T21:26:53.335Z,79.07
2022-12-09T21:29:20.316Z,78.90
2022-12-09T21:31:48.767Z,78.92
2022-12-09T21:34:15.476Z,78.88
2022-12-09T21:36:43.270Z,78.89
2022-12-09T21:39:13.371Z,78.91
2022-12-09T21:41:40.016Z,79.15
2022-12-09T21:44:06.751Z,79.33
2022-12-09T21:46:34.367Z,78.77
2022-12-09T21:49:04.069Z,78.48
2022-12-09T21:51:33.823Z,78.43
2022-12-09T21:54:00.323Z,78.62
2022-12-09T21:56:27.841Z,78.96
2022-12-09T21:58:55.217Z,79.15
2022-12-09T22:01:22.956Z,79.26
2022-12-09T22:03:49.776Z,78.67
2022-12-09T22:06:16.847Z,79.29
2022-12-09T22:08:43.580Z,79.22
2022-12-09T22:11:10.721Z,79.55
2022-12-09T22:13:39.777Z,79.54
2022-12-09T22:16:07.856Z,79.71
2022-12-09T22:18:34.371Z,79.25
2022-12-09T22:21:25.555Z,79.34
2022-12-09T22:23:56.386Z,78.65
2022-12-09T22:26:23.069Z,78.43
2022-12-09T22:28:49.578Z,78.84
2022-12-09T22:31:20.556Z,78.72
2022-12-09T22:33:47.585Z,78.67
2022-12-09T22:36:14.805Z,78.88
2022-12-09T22:38:41.728Z,78.91
2022-12-09T22:41:12.440Z,78.84
2022-12-09T22:43:39.245Z,78.43
2022-12-09T22:46:10.397Z,78.43
2022-12-09T22:48:37.188Z,78.81
2022-12-09T22:51:07.868Z,78.40
2022-12-09T22:53:34.390Z,78.44
2022-12-09T22:56:01.097Z,78.43
2022-12-09T22:58:27.922Z,78.56
2022-12-09T23:00:54.443Z,78.46
2022-12-09T23:03:21.244Z,78.63
2022-12-09T23:05:47.785Z,78.39
2022-12-09T23:08:14.346Z,78.17
2022-12-09T23:10:40.983Z,78.54
2022-12-09T23:13:07.685Z,78.54
2022-12-09T23:15:34.557Z,78.72
2022-12-09T23:18:01.138Z,79.18
2022-12-09T23:20:28.153Z,79.21
2022-12-09T23:22:54.695Z,78.72
2022-12-09T23:25:21.212Z,78.39
2022-12-09T23:27:47.739Z,78.32
2022-12-09T23:30:14.231Z,78.66
2022-12-09T23:32:40.835Z,78.86
2022-12-09T23:35:08.186Z,78.52
2022-12-09T23:37:34.683Z,78.20
2022-12-09T23:40:01.176Z,78.11
2022-12-09T23:42:27.680Z,77.81
2022-12-09T23:44:54.179Z,78.28
2022-12-09T23:47:21.228Z,77.90
2022-12-09T23:49:47.752Z,77.91
2022-12-09T23:52:14.244Z,78.30
2022-12-09T23:54:40.804Z,78.24
2022-12-09T23:57:07.334Z,78.33
2022-12-09T23:59:34.130Z,77.97
